Dialville, Texas
Current Conditions -  °F | °C
As of 11:15 AM on Sunday 25 Jan 2015 (Local Time) from KJSO Reporting Station
Clear Clear  
Wind Chill: 59°   Ceiling: Unl
Heat Index: 59°   Visibility: 10mi
Dew Point: 37°   Wind: 8mph
Humidity: 43%   Direction: 320°NW
Pressure: 30.02"   Gusts: NA
Location:  31.7956°N, 95.1946°W
Report Text: KJSO 251715Z AUTO 32007KT 10SM CLR 15/03 A3002 RMK AO2 T01510027
Loading
Personal Weather Stations






























Interactive Weather Map New forecast layout! Learn more

10-Day Weather Forecast

Advertisements
Track Severe Weather on mobile